Big Sandy, Montana
Current Conditions -  °F | °C
As of 5:53 PM on Friday 28 Nov 2014 (Local Time) from KHVR Reporting Station
Overcast Overcast  
Wind Chill: -15°   Ceiling: 1600
Heat Index:   Visibility: 10mi
Dew Point: -1°   Wind: 18mph
Humidity: 76%   Direction: 320°NW
Pressure: 29.63"   Gusts: NA
Location:  48.18°N, 110.11°W
Report Text: KHVR 290053Z AUTO 32016KT 10SM OVC016 M15/M18 A2963 RMK AO2 SNB05E31 SLP074 P0000 T11501183
Loading
Personal Weather Stations






























Interactive Weather Map New forecast layout! Learn more

10-Day Weather Forecast

Advertisements
Track Severe Weather on mobile